Time;durP1;ratioP1;P1;durP2;ratioP2;P2;SDS_P1;SDS_P2;PMS_P1;PMS_P2;Temp;Humidity;BMP_temperature;BMP_pressure;BME280_temperature;BME280_humidity;BME280_pressure;Samples;Min_cycle;Max_cycle;Signal;HPM_P1;HPM_P2
2019/10/19 00:02:22;;;;;;;12.7;7.4;;;;;;;;;;;;;
2019/10/19 00:04:48;;;;;;;6.5;4.3;;;;;;;;;;;;;
2019/10/19 00:07:13;;;;;;;5;4.3;;;;;;;;;;;;;
2019/10/19 00:09:38;;;;;;;7.2;4.1;;;;;;;;;;;;;
2019/10/19 00:12:03;;;;;;;5.7;4;;;;;;;;;;;;;
2019/10/19 00:14:28;;;;;;;6.1;4.3;;;;;;;;;;;;;
2019/10/19 00:16:53;;;;;;;7.5;4.3;;;;;;;;;;;;;
2019/10/19 00:19:29;;;;;;;7.2;4.3;;;;;;;;;;;;;
2019/10/19 00:26:34;;;;;;;5.9;4.7;;;;;;;;;;;;;
2019/10/19 00:28:59;;;;;;;6.5;4.1;;;;;;;;;;;;;
2019/10/19 00:31:24;;;;;;;6.2;4.5;;;;;;;;;;;;;
2019/10/19 00:33:49;;;;;;;6.3;4.5;;;;;;;;;;;;;
2019/10/19 00:36:15;;;;;;;7;4.2;;;;;;;;;;;;;
2019/10/19 00:38:40;;;;;;;6.5;3.8;;;;;;;;;;;;;
2019/10/19 00:41:05;;;;;;;5.3;3.7;;;;;;;;;;;;;
2019/10/19 00:43:30;;;;;;;6.3;3.5;;;;;;;;;;;;;
2019/10/19 00:45:55;;;;;;;6.7;4;;;;;;;;;;;;;
2019/10/19 00:48:20;;;;;;;7.9;4.3;;;;;;;;;;;;;
2019/10/19 00:50:46;;;;;;;6.5;4.1;;;;;;;;;;;;;
2019/10/19 00:53:10;;;;;;;5;4;;;;;;;;;;;;;
2019/10/19 00:55:35;;;;;;;6;3.6;;;;;;;;;;;;;
2019/10/19 00:58:44;;;;;;;5.2;3.8;;;;;;;;;;;;;
2019/10/19 01:01:09;;;;;;;6;4.2;;;;;;;;;;;;;
2019/10/19 01:03:34;;;;;;;7.3;4;;;;;;;;;;;;;
2019/10/19 01:05:59;;;;;;;4.9;4;;;;;;;;;;;;;
2019/10/19 01:08:24;;;;;;;6.3;4;;;;;;;;;;;;;
2019/10/19 01:10:49;;;;;;;6.6;3.8;;;;;;;;;;;;;
2019/10/19 01:13:15;;;;;;;5.5;4.2;;;;;;;;;;;;;
2019/10/19 01:15:40;;;;;;;5.1;4;;;;;;;;;;;;;
2019/10/19 01:18:05;;;;;;;5.3;3.6;;;;;;;;;;;;;
2019/10/19 01:21:42;;;;;;;5.5;3.7;;;;;;;;;;;;;
2019/10/19 01:22:58;;;;;;;4.7;3.9;;;;;;;;;;;;;
2019/10/19 01:25:22;;;;;;;5.1;4.2;;;;;;;;;;;;;
2019/10/19 01:27:45;;;;;;;5.7;3.8;;;;;;;;;;;;;
2019/10/19 01:30:13;;;;;;;5.9;4.2;;;;;;;;;;;;;
2019/10/19 01:32:35;;;;;;;5.1;4;;;;;;;;;;;;;
2019/10/19 01:35:01;;;;;;;5.4;4.3;;;;;;;;;;;;;
2019/10/19 01:37:26;;;;;;;6.2;4.3;;;;;;;;;;;;;
2019/10/19 01:39:51;;;;;;;9.3;4.8;;;;;;;;;;;;;
2019/10/19 01:42:16;;;;;;;17.5;10.8;;;;;;;;;;;;;
2019/10/19 01:44:41;;;;;;;8.8;4.8;;;;;;;;;;;;;
2019/10/19 01:47:06;;;;;;;6.7;4.6;;;;;;;;;;;;;
2019/10/19 01:49:32;;;;;;;7.3;5.1;;;;;;;;;;;;;
2019/10/19 01:51:56;;;;;;;6.1;4.8;;;;;;;;;;;;;
2019/10/19 01:54:22;;;;;;;6;4.6;;;;;;;;;;;;;
2019/10/19 01:56:47;;;;;;;5.9;4.4;;;;;;;;;;;;;
2019/10/19 01:59:12;;;;;;;7.2;5.1;;;;;;;;;;;;;
2019/10/19 02:01:41;;;;;;;7.6;5.6;;;;;;;;;;;;;
2019/10/19 02:04:36;;;;;;;7.7;5.5;;;;;;;;;;;;;
2019/10/19 02:06:27;;;;;;;6.9;4.7;;;;;;;;;;;;;
2019/10/19 02:08:52;;;;;;;6.4;4.6;;;;;;;;;;;;;
2019/10/19 02:11:18;;;;;;;5;4.2;;;;;;;;;;;;;
2019/10/19 02:13:43;;;;;;;4.9;3.8;;;;;;;;;;;;;
2019/10/19 02:16:08;;;;;;;6.1;4.2;;;;;;;;;;;;;
2019/10/19 02:18:35;;;;;;;6;3.6;;;;;;;;;;;;;
2019/10/19 02:20:58;;;;;;;5;3.7;;;;;;;;;;;;;
2019/10/19 02:23:23;;;;;;;5;3.3;;;;;;;;;;;;;
2019/10/19 02:25:48;;;;;;;6.5;3.6;;;;;;;;;;;;;
2019/10/19 02:28:13;;;;;;;5.3;3.4;;;;;;;;;;;;;
2019/10/19 02:30:38;;;;;;;5;3.5;;;;;;;;;;;;;
2019/10/19 02:33:03;;;;;;;4.3;3.4;;;;;;;;;;;;;
2019/10/19 02:35:28;;;;;;;5.3;3.4;;;;;;;;;;;;;
2019/10/19 02:37:54;;;;;;;6.2;3.4;;;;;;;;;;;;;
2019/10/19 02:40:19;;;;;;;5.4;3.2;;;;;;;;;;;;;
2019/10/19 02:42:44;;;;;;;4.8;3.4;;;;;;;;;;;;;
2019/10/19 02:45:09;;;;;;;3.8;3.2;;;;;;;;;;;;;
2019/10/19 02:47:34;;;;;;;4.7;3.2;;;;;;;;;;;;;
2019/10/19 02:49:59;;;;;;;4;3.2;;;;;;;;;;;;;
2019/10/19 02:52:25;;;;;;;3.8;3.2;;;;;;;;;;;;;
2019/10/19 02:54:49;;;;;;;5.7;3.3;;;;;;;;;;;;;
2019/10/19 02:57:14;;;;;;;5.9;3.7;;;;;;;;;;;;;
2019/10/19 02:59:40;;;;;;;4.3;3.4;;;;;;;;;;;;;
2019/10/19 03:02:05;;;;;;;3.2;2.8;;;;;;;;;;;;;
2019/10/19 03:04:30;;;;;;;4.7;3.2;;;;;;;;;;;;;
2019/10/19 03:06:55;;;;;;;7;3.1;;;;;;;;;;;;;
2019/10/19 03:09:21;;;;;;;4.9;3.4;;;;;;;;;;;;;
2019/10/19 03:11:45;;;;;;;4.3;3.1;;;;;;;;;;;;;
2019/10/19 03:14:10;;;;;;;5.3;3.1;;;;;;;;;;;;;
2019/10/19 03:16:36;;;;;;;4.6;2.9;;;;;;;;;;;;;
2019/10/19 03:19:01;;;;;;;4.6;3;;;;;;;;;;;;;
2019/10/19 03:21:26;;;;;;;3.9;2.7;;;;;;;;;;;;;
2019/10/19 03:23:51;;;;;;;7.1;3.2;;;;;;;;;;;;;
2019/10/19 03:28:45;;;;;;;6.1;4.1;;;;;;;;;;;;;
2019/10/19 03:31:14;;;;;;;8.3;4.1;;;;;;;;;;;;;
2019/10/19 03:33:36;;;;;;;5.5;3.9;;;;;;;;;;;;;
2019/10/19 03:35:59;;;;;;;6.3;4.7;;;;;;;;;;;;;
2019/10/19 03:38:24;;;;;;;6.4;4.7;;;;;;;;;;;;;
2019/10/19 03:40:47;;;;;;;5.3;4.2;;;;;;;;;;;;;
2019/10/19 03:43:12;;;;;;;6.4;3.9;;;;;;;;;;;;;
2019/10/19 03:45:37;;;;;;;6;3.9;;;;;;;;;;;;;
2019/10/19 03:48:02;;;;;;;5.4;4.1;;;;;;;;;;;;;
2019/10/19 03:50:28;;;;;;;5.4;4.1;;;;;;;;;;;;;
2019/10/19 03:52:52;;;;;;;6.7;4;;;;;;;;;;;;;
2019/10/19 03:55:17;;;;;;;7.3;4.1;;;;;;;;;;;;;
2019/10/19 03:57:42;;;;;;;5.6;4;;;;;;;;;;;;;
2019/10/19 04:02:28;;;;;;;7;4.3;;;;;;;13.8;97.51172;996.7787;;;;
2019/10/19 04:04:53;;;;;;;6.2;4;;;;;;;13.82;97.16797;996.7469;;;;
2019/10/19 04:07:18;;;;;;;6.9;3.9;;;;;;;13.76;97.10938;996.7648;;;;
2019/10/19 04:09:43;;;;;;;7.3;3.8;;;;;;;13.34;98.33984;996.6764;;;;
2019/10/19 04:12:08;;;;;;;6.5;4;;;;;;;13.41;98.81934;996.5287;;;;
2019/10/19 04:14:33;;;;;;;4.2;3;;;;;;;13.4;98.12402;996.1828;;;;
2019/10/19 04:17:02;;;;;;;3.7;2.7;;;;;;;13.29;97.90625;995.9861;;;;
2019/10/19 04:19:23;;;;;;;5.5;2.8;;;;;;;13.21;98.08105;995.916;;;;
2019/10/19 04:21:48;;;;;;;3.9;2.5;;;;;;;13.22;97.65723;995.9309;;;;
2019/10/19 04:24:13;;;;;;;5.1;2.8;;;;;;;13.3;97.21484;995.8728;;;;
2019/10/19 04:31:29;;;;;;;3.1;2.1;;;;;;;13.27;96.55176;995.9844;;;;
2019/10/19 04:33:54;;;;;;;3.1;2.4;;;;;;;13.31;97.03223;996.1088;;;;
2019/10/19 04:36:19;;;;;;;5.2;2.3;;;;;;;13.37;96.94043;996.2078;;;;
2019/10/19 04:38:44;;;;;;;4.1;2.3;;;;;;;13.49;96.65723;996.2985;;;;
2019/10/19 04:41:09;;;;;;;3.5;2.3;;;;;;;13.53;96.59668;996.2792;;;;
2019/10/19 04:43:35;;;;;;;4.7;2.4;;;;;;;13.63;96.78125;996.3269;;;;
2019/10/19 04:46:00;;;;;;;4.7;2.5;;;;;;;13.78;96.22559;996.3706;;;;
2019/10/19 04:48:25;;;;;;;4.7;2.4;;;;;;;13.83;95.87988;996.3142;;;;
2019/10/19 04:50:50;;;;;;;4.7;2.2;;;;;;;13.84;95.97168;996.209;;;;
2019/10/19 04:53:15;;;;;;;4.3;2.4;;;;;;;13.86;95.78223;995.7692;;;;
2019/10/19 04:55:40;;;;;;;4.4;2.3;;;;;;;13.64;95.64258;995.6106;;;;
2019/10/19 04:58:05;;;;;;;4.5;2.5;;;;;;;13.1;97.09961;995.5714;;;;
2019/10/19 05:00:30;;;;;;;3.2;2.4;;;;;;;13.05;97.92969;995.73;;;;
2019/10/19 05:02:56;;;;;;;4.1;2.5;;;;;;;13.1;97.98633;995.7911;;;;
2019/10/19 05:05:21;;;;;;;3.6;2.5;;;;;;;13.16;97.3916;995.7547;;;;
2019/10/19 05:07:46;;;;;;;3.2;2.4;;;;;;;13.14;97.35156;995.7891;;;;
2019/10/19 05:10:11;;;;;;;4.3;2.4;;;;;;;13.06;97.80664;995.8708;;;;
2019/10/19 05:12:36;;;;;;;3.4;2.4;;;;;;;13.16;98.06934;995.8434;;;;
2019/10/19 05:15:02;;;;;;;4.6;2.4;;;;;;;13.23;97.22168;995.899;;;;
2019/10/19 05:17:27;;;;;;;2.7;2;;;;;;;13.19;97.05176;995.9975;;;;
2019/10/19 05:19:52;;;;;;;5;2.3;;;;;;;13.35;96.69434;995.8505;;;;
2019/10/19 05:22:17;;;;;;;2.9;2.1;;;;;;;13.32;95.38672;995.83;;;;
2019/10/19 05:24:42;;;;;;;4.9;2.1;;;;;;;13.39;95.34277;995.8251;;;;
2019/10/19 05:27:07;;;;;;;3.9;2.1;;;;;;;13.35;94.88574;995.9548;;;;
2019/10/19 05:29:33;;;;;;;2.3;1.7;;;;;;;13.42;94.45215;995.8091;;;;
2019/10/19 05:31:58;;;;;;;2.2;1.9;;;;;;;13.47;94.3252;995.8224;;;;
2019/10/19 05:34:23;;;;;;;2.1;1.9;;;;;;;13.47;93.8877;995.9352;;;;
2019/10/19 05:36:48;;;;;;;3.1;1.9;;;;;;;13.49;93.88184;995.8522;;;;
2019/10/19 05:39:14;;;;;;;4.7;2.1;;;;;;;13.66;94.5166;995.5817;;;;
2019/10/19 05:41:39;;;;;;;2.8;1.7;;;;;;;13.4;93.88281;995.5463;;;;
2019/10/19 05:44:06;;;;;;;3;1.7;;;;;;;13.42;94.19824;995.5396;;;;
2019/10/19 05:46:29;;;;;;;3.6;1.8;;;;;;;13.41;93.83887;995.5189;;;;
2019/10/19 05:49:10;;;;;;;2.7;1.9;;;;;;;13.49;94.01953;995.5616;;;;
2019/10/19 05:51:29;;;;;;;3.7;1.8;;;;;;;13.44;93.74121;995.5933;;;;
2019/10/19 05:53:45;;;;;;;3.3;2;;;;;;;13.33;93.86816;995.6223;;;;
2019/10/19 05:56:10;;;;;;;2.5;1.9;;;;;;;13.36;94.09277;995.6785;;;;
2019/10/19 05:58:35;;;;;;;2.3;1.5;;;;;;;13.43;93.87988;995.7932;;;;
2019/10/19 06:01:01;;;;;;;3.3;1.9;;;;;;;13.4;94.44824;995.952;;;;
2019/10/19 06:03:25;;;;;;;3;1.9;;;;;;;13.4;95.4502;996.022;;;;
2019/10/19 06:05:50;;;;;;;3.7;1.8;;;;;;;13.51;95.73926;996.1086;;;;
2019/10/19 06:08:16;;;;;;;2.6;1.8;;;;;;;13.43;96.25391;996.1312;;;;
2019/10/19 06:10:41;;;;;;;3.4;2;;;;;;;13.47;96.42285;996.1735;;;;
2019/10/19 06:13:06;;;;;;;3.7;2.1;;;;;;;13.55;96.56543;996.2099;;;;
2019/10/19 06:15:31;;;;;;;2.7;2.1;;;;;;;13.66;96.00391;996.2106;;;;
2019/10/19 06:17:56;;;;;;;3.6;2;;;;;;;13.45;96.91406;996.2567;;;;
2019/10/19 06:20:22;;;;;;;3.5;2;;;;;;;13.29;97.8252;996.2273;;;;
2019/10/19 06:22:48;;;;;;;4.1;2;;;;;;;13.44;98.29395;996.243;;;;
2019/10/19 06:25:24;;;;;;;6;3;;;;;;;13.73;96.64258;996.168;;;;
2019/10/19 06:27:49;;;;;;;4.2;2.5;;;;;;;13.72;96.04102;996.3406;;;;
2019/10/19 06:30:14;;;;;;;4.1;2.2;;;;;;;13.37;98.31348;996.3728;;;;
2019/10/19 06:32:39;;;;;;;3.6;2.3;;;;;;;13.5;97.70801;996.3486;;;;
2019/10/19 06:35:04;;;;;;;5.4;2.3;;;;;;;13.26;99.1416;996.1078;;;;
2019/10/19 06:37:29;;;;;;;3.1;2.2;;;;;;;13.48;97.40234;995.8586;;;;
2019/10/19 06:39:54;;;;;;;5;2.7;;;;;;;13.42;96.94141;995.7637;;;;
2019/10/19 06:42:19;;;;;;;4.2;2.6;;;;;;;13.33;97.28809;995.8323;;;;
2019/10/19 06:44:45;;;;;;;3.8;2.4;;;;;;;13.37;97.05566;995.7916;;;;
2019/10/19 06:47:10;;;;;;;2.6;2.1;;;;;;;13.26;97.30859;995.7254;;;;
2019/10/19 06:49:35;;;;;;;3.7;2.6;;;;;;;13.05;98.38867;995.5708;;;;
2019/10/19 06:52:00;;;;;;;3.8;2.7;;;;;;;12.95;99.21973;995.5886;;;;
2019/10/19 06:54:25;;;;;;;3.8;2.4;;;;;;;13.05;99.10645;995.8597;;;;
2019/10/19 06:56:50;;;;;;;4.7;2.3;;;;;;;13.15;98.52832;995.8358;;;;
2019/10/19 06:59:15;;;;;;;3.9;2.1;;;;;;;13.29;97.77734;995.786;;;;
2019/10/19 07:01:40;;;;;;;2.9;1.9;;;;;;;13.2;98.42285;995.9648;;;;
2019/10/19 07:04:06;;;;;;;3.3;2.3;;;;;;;13.45;96.8457;996.1035;;;;
2019/10/19 07:06:31;;;;;;;5.2;2.1;;;;;;;13.69;95.90625;996.1544;;;;
2019/10/19 07:08:56;;;;;;;4.5;2.5;;;;;;;13.68;96.12305;996.1761;;;;
2019/10/19 07:11:21;;;;;;;3.6;2.3;;;;;;;13.72;95.83301;995.9813;;;;
2019/10/19 07:13:46;;;;;;;5.6;2.5;;;;;;;13.76;96.22168;995.7932;;;;
2019/10/19 07:16:11;;;;;;;4.4;2.5;;;;;;;13.46;96.31738;995.6308;;;;
2019/10/19 07:18:37;;;;;;;5;2.6;;;;;;;13.45;97.52539;995.7511;;;;
2019/10/19 07:21:02;;;;;;;2.5;2.3;;;;;;;13.36;98.48438;996.2224;;;;
2019/10/19 07:23:27;;;;;;;3.6;2.3;;;;;;;13.45;98.38965;995.815;;;;
2019/10/19 07:25:52;;;;;;;3.9;2.5;;;;;;;13.5;96.90137;995.6847;;;;
2019/10/19 07:28:18;;;;;;;3.5;2.2;;;;;;;13.67;97.30859;995.8848;;;;
2019/10/19 07:30:43;;;;;;;4.2;2.2;;;;;;;13.85;95.35547;995.7255;;;;
2019/10/19 07:33:08;;;;;;;3.7;2.4;;;;;;;13.69;96.52832;995.5751;;;;
2019/10/19 07:35:33;;;;;;;4;2.2;;;;;;;13.68;96.81445;995.6936;;;;
2019/10/19 07:37:58;;;;;;;4.8;2.3;;;;;;;13.68;96.52637;995.9313;;;;
2019/10/19 07:40:23;;;;;;;3;2;;;;;;;13.73;96.76953;995.8914;;;;
2019/10/19 07:42:48;;;;;;;2.8;1.8;;;;;;;14.07;95.2041;995.8826;;;;
2019/10/19 07:45:14;;;;;;;3.1;2.3;;;;;;;14.16;94.88867;995.8234;;;;
2019/10/19 07:47:39;;;;;;;4.5;2.1;;;;;;;13.95;96.13672;995.8716;;;;
2019/10/19 07:50:04;;;;;;;2.9;2.3;;;;;;;13.58;97.99121;995.8583;;;;
2019/10/19 07:52:29;;;;;;;2.5;2;;;;;;;13.83;97.40234;995.9651;;;;
2019/10/19 07:54:54;;;;;;;3.1;2.1;;;;;;;14.04;95.91406;996.0441;;;;
2019/10/19 07:57:19;;;;;;;4.6;3.4;;;;;;;13.71;97.23633;996.1476;;;;
2019/10/19 07:59:44;;;;;;;6.1;4.4;;;;;;;13.48;98.48633;996.1367;;;;
2019/10/19 08:02:10;;;;;;;5.5;4.2;;;;;;;13.75;98.00879;996.1866;;;;
2019/10/19 08:04:35;;;;;;;5.5;3.9;;;;;;;14.05;95.88086;996.121;;;;
2019/10/19 08:07:00;;;;;;;4.4;3.8;;;;;;;14.32;94.48535;996.103;;;;
2019/10/19 08:09:25;;;;;;;6.1;4.2;;;;;;;14.01;96.4502;996.183;;;;
2019/10/19 08:11:51;;;;;;;6;3.8;;;;;;;14.26;95.73242;996.1541;;;;
2019/10/19 08:14:16;;;;;;;4.7;3.8;;;;;;;14.3;95.18652;996.1945;;;;
2019/10/19 08:16:41;;;;;;;8.3;4;;;;;;;14.26;96.24023;996.3344;;;;
2019/10/19 08:19:06;;;;;;;5.5;3.6;;;;;;;14.18;96.13965;996.3646;;;;
2019/10/19 08:21:31;;;;;;;5.5;4;;;;;;;14.19;96.94043;996.4313;;;;
2019/10/19 08:23:57;;;;;;;4.5;3.5;;;;;;;14.44;95.19238;996.4473;;;;
2019/10/19 08:26:21;;;;;;;4.5;3.6;;;;;;;14.68;93.51172;996.4403;;;;
2019/10/19 08:28:47;;;;;;;5.1;3.8;;;;;;;14.72;92.75879;996.4163;;;;
2019/10/19 08:31:12;;;;;;;6.6;4;;;;;;;14.71;92.45605;996.4331;;;;
2019/10/19 08:33:37;;;;;;;5.2;3.9;;;;;;;14.67;92.90918;996.4716;;;;
2019/10/19 08:36:03;;;;;;;7.7;4;;;;;;;14.68;93.13086;996.4629;;;;
2019/10/19 08:38:28;;;;;;;5.9;4.2;;;;;;;14.57;93.29199;996.3503;;;;
2019/10/19 08:40:53;;;;;;;5.5;3.7;;;;;;;14.49;93.63281;996.3599;;;;
2019/10/19 08:43:18;;;;;;;6.1;4;;;;;;;14.44;94.6377;996.3809;;;;
2019/10/19 08:45:43;;;;;;;3.7;3.3;;;;;;;14.52;93.87207;996.3486;;;;
2019/10/19 08:48:08;;;;;;;6.9;3.7;;;;;;;14.5;93.68164;996.3577;;;;
2019/10/19 08:50:34;;;;;;;5;3.1;;;;;;;14.49;94.78809;996.4341;;;;
2019/10/19 08:52:59;;;;;;;5;3.1;;;;;;;14.78;94.26172;996.381;;;;
2019/10/19 08:55:24;;;;;;;4.1;2.9;;;;;;;15.03;91.13281;996.3558;;;;
2019/10/19 08:57:49;;;;;;;4.8;3.1;;;;;;;15.24;90.63574;996.3798;;;;
2019/10/19 09:00:14;;;;;;;4.2;2.7;;;;;;;15.63;88.49023;996.423;;;;
2019/10/19 09:02:39;;;;;;;4.2;2.5;;;;;;;15.75;87.2998;996.3848;;;;
2019/10/19 09:05:05;;;;;;;3.4;2.4;;;;;;;15.64;88.36523;996.358;;;;
2019/10/19 09:07:30;;;;;;;3.9;2.4;;;;;;;15.8;87.34473;996.3508;;;;
2019/10/19 09:09:55;;;;;;;5;2.4;;;;;;;15.69;86.53418;996.3318;;;;
2019/10/19 09:12:20;;;;;;;5.6;2.6;;;;;;;15.57;87.94531;996.3812;;;;
2019/10/19 09:14:45;;;;;;;4.2;2.2;;;;;;;15.54;86.71387;996.3757;;;;
2019/10/19 09:17:10;;;;;;;5.3;2.2;;;;;;;15.59;86.66699;996.4559;;;;
2019/10/19 09:19:36;;;;;;;3.4;1.9;;;;;;;15.43;86.38965;996.4597;;;;
2019/10/19 09:22:00;;;;;;;2.8;2.1;;;;;;;15.35;87.66992;996.3998;;;;
2019/10/19 09:24:25;;;;;;;3.1;1.6;;;;;;;15.43;87.45508;996.3591;;;;
2019/10/19 09:26:50;;;;;;;4.7;1.9;;;;;;;15.19;88.53027;996.343;;;;
2019/10/19 09:29:16;;;;;;;3.4;1.9;;;;;;;15.54;88.05762;996.3086;;;;
2019/10/19 09:31:41;;;;;;;2.6;1.7;;;;;;;15.84;87.47949;996.3992;;;;
2019/10/19 09:34:06;;;;;;;3.3;1.7;;;;;;;15.84;87.25977;996.3959;;;;
2019/10/19 09:36:31;;;;;;;2.7;1.6;;;;;;;15.43;89.48242;996.4155;;;;
2019/10/19 09:38:56;;;;;;;4.6;1.8;;;;;;;15.39;89.19434;996.3901;;;;
2019/10/19 09:41:21;;;;;;;2.5;1.7;;;;;;;15.63;84.36914;996.3652;;;;
2019/10/19 09:43:46;;;;;;;1.9;1.3;;;;;;;15.72;82.68164;996.3256;;;;
2019/10/19 09:46:11;;;;;;;3.3;1.6;;;;;;;15.84;82.6123;996.3459;;;;
2019/10/19 09:48:36;;;;;;;4;1.5;;;;;;;15.87;82.65234;996.3284;;;;
2019/10/19 09:51:01;;;;;;;3;1.8;;;;;;;15.82;87.40625;996.3847;;;;
2019/10/19 09:53:27;;;;;;;2.9;1.8;;;;;;;16.09;86;996.2801;;;;
2019/10/19 09:55:52;;;;;;;3.2;1.7;;;;;;;15.99;86.94238;996.2844;;;;
2019/10/19 09:58:17;;;;;;;2.9;1.8;;;;;;;16.64;83.04102;996.2941;;;;
2019/10/19 10:00:42;;;;;;;3.3;1.9;;;;;;;16.42;84.625;996.2631;;;;
2019/10/19 10:03:07;;;;;;;2.5;1.7;;;;;;;16.36;83.05957;996.1947;;;;
2019/10/19 10:05:32;;;;;;;3;1.9;;;;;;;16.33;82.2998;996.2255;;;;
2019/10/19 10:07:57;;;;;;;3.5;1.8;;;;;;;16.37;82.17969;996.2274;;;;
2019/10/19 10:10:23;;;;;;;3;1.8;;;;;;;16.3;82.83887;996.2369;;;;
2019/10/19 10:12:48;;;;;;;5;1.9;;;;;;;16.25;84.46387;996.2877;;;;
2019/10/19 10:15:13;;;;;;;2.6;1.6;;;;;;;16.77;80.63965;996.2997;;;;
2019/10/19 10:17:38;;;;;;;2.1;1.5;;;;;;;16.42;82.12012;996.2894;;;;
2019/10/19 10:20:04;;;;;;;1.8;1.5;;;;;;;16.66;81.80371;996.2444;;;;
2019/10/19 10:22:28;;;;;;;2;1.5;;;;;;;16.83;80.5;996.1722;;;;
2019/10/19 10:24:54;;;;;;;2.7;1.4;;;;;;;17.25;77.79785;996.0787;;;;
2019/10/19 10:27:19;;;;;;;3.1;1.6;;;;;;;17.16;76.02637;995.9303;;;;
2019/10/19 10:29:44;;;;;;;1.5;1.4;;;;;;;17.09;76.95508;995.9254;;;;
2019/10/19 10:32:09;;;;;;;2.1;1.5;;;;;;;17.4;74.50977;995.9169;;;;
2019/10/19 10:34:34;;;;;;;2.7;1.5;;;;;;;17.38;75.16992;995.9418;;;;
2019/10/19 10:36:59;;;;;;;2.2;1.4;;;;;;;17.38;76.62402;995.9822;;;;
2019/10/19 10:39:24;;;;;;;1.8;1.3;;;;;;;17.75;73.18359;996.008;;;;
2019/10/19 10:41:49;;;;;;;1.8;1.2;;;;;;;17.87;72.9248;996.0468;;;;
2019/10/19 10:44:14;;;;;;;1.6;1.1;;;;;;;17.57;75.31836;996.022;;;;
2019/10/19 10:46:40;;;;;;;1.9;1.1;;;;;;;17.55;74.9668;995.9742;;;;
2019/10/19 10:49:05;;;;;;;1.5;1.2;;;;;;;17.64;75.79688;995.9701;;;;
2019/10/19 10:51:30;;;;;;;3.4;1.4;;;;;;;17.38;74.77441;995.9844;;;;
2019/10/19 10:53:55;;;;;;;1.8;1.3;;;;;;;17.68;74.17383;996.0089;;;;
2019/10/19 10:56:21;;;;;;;1.7;1.4;;;;;;;17.92;72.16406;996.0187;;;;
2019/10/19 10:58:46;;;;;;;2.8;1.2;;;;;;;17.99;71.94434;995.9108;;;;
2019/10/19 11:01:11;;;;;;;2.7;1.6;;;;;;;18.55;69.96191;995.8692;;;;
2019/10/19 11:03:36;;;;;;;2;1.3;;;;;;;18.68;69.98145;995.8926;;;;
2019/10/19 11:06:01;;;;;;;2;1.7;;;;;;;18.18;71.76563;995.8833;;;;
2019/10/19 11:08:27;;;;;;;4.1;2;;;;;;;17.3;76.35352;995.7263;;;;
2019/10/19 11:10:52;;;;;;;2.5;1.7;;;;;;;17.26;77.23145;995.6981;;;;
2019/10/19 11:13:17;;;;;;;2.8;2;;;;;;;17.63;76.33008;995.6871;;;;
2019/10/19 11:15:42;;;;;;;3.3;2;;;;;;;17.9;74.80566;995.7339;;;;
2019/10/19 11:18:07;;;;;;;2.2;1.6;;;;;;;17.94;75.41699;995.7441;;;;
2019/10/19 11:20:32;;;;;;;2.7;1.6;;;;;;;17.94;74.69531;995.6669;;;;
2019/10/19 11:22:57;;;;;;;2.3;1.6;;;;;;;18;74.16992;995.7255;;;;
2019/10/19 11:25:23;;;;;;;2.8;1.6;;;;;;;18.22;74.56738;995.6667;;;;
2019/10/19 11:27:48;;;;;;;2.3;1.4;;;;;;;18.18;73.1748;995.655;;;;
2019/10/19 11:30:13;;;;;;;2.8;1.6;;;;;;;18.15;73.4375;995.5734;;;;
2019/10/19 11:32:38;;;;;;;3;1.5;;;;;;;18.36;73.77441;995.567;;;;
2019/10/19 11:35:03;;;;;;;1.5;1.3;;;;;;;18.25;72.78906;995.6174;;;;
2019/10/19 11:37:28;;;;;;;2.9;1.2;;;;;;;18.7;71.93066;995.5906;;;;
2019/10/19 11:39:53;;;;;;;3.2;1.2;;;;;;;18.67;72.03125;995.5898;;;;
2019/10/19 11:42:18;;;;;;;2.6;1.4;;;;;;;18.56;72.21191;995.57;;;;
2019/10/19 11:44:43;;;;;;;2.6;1.3;;;;;;;18.37;73.73145;995.4464;;;;
2019/10/19 11:47:08;;;;;;;1.9;1.5;;;;;;;18.91;71.60449;995.4094;;;;
2019/10/19 11:49:34;;;;;;;1.3;1;;;;;;;18.94;72.35547;995.4319;;;;
2019/10/19 11:51:59;;;;;;;1.8;1.3;;;;;;;18.54;72.04395;995.4266;;;;
2019/10/19 11:54:24;;;;;;;1.5;1.3;;;;;;;18.94;70.6748;995.4079;;;;
2019/10/19 11:56:49;;;;;;;2.2;1.2;;;;;;;18.88;70.37305;995.4481;;;;
2019/10/19 11:59:14;;;;;;;2.5;1.3;;;;;;;18.5;72.01465;995.4554;;;;
2019/10/19 12:01:39;;;;;;;1.8;1.3;;;;;;;18.53;72.19629;995.4105;;;;
2019/10/19 12:04:04;;;;;;;1.5;1.3;;;;;;;18.83;71.19434;995.3602;;;;
2019/10/19 12:06:29;;;;;;;2.7;1.6;;;;;;;18.82;71.07617;995.427;;;;
2019/10/19 12:08:54;;;;;;;2.3;1.5;;;;;;;18.64;71.53613;995.2787;;;;
2019/10/19 12:11:19;;;;;;;5.4;1.5;;;;;;;18.83;70.37793;995.1945;;;;
2019/10/19 12:13:45;;;;;;;2.2;1.7;;;;;;;18.79;70.6875;995.215;;;;
2019/10/19 12:16:10;;;;;;;2.8;1.5;;;;;;;18.7;70.51953;995.2325;;;;
2019/10/19 12:18:35;;;;;;;3.5;1.7;;;;;;;18.82;70.22461;995.1711;;;;
2019/10/19 12:21:00;;;;;;;2.2;1.6;;;;;;;18.92;69.15527;995.1878;;;;
2019/10/19 12:23:25;;;;;;;2.2;1.5;;;;;;;19.09;69.31055;995.1005;;;;
2019/10/19 12:25:50;;;;;;;2.1;1.4;;;;;;;19.03;67.88672;995.0085;;;;
2019/10/19 12:28:15;;;;;;;3.3;1.5;;;;;;;18.82;68.84766;995.0203;;;;
2019/10/19 12:30:41;;;;;;;1.7;1.2;;;;;;;18.86;68.08301;994.8947;;;;
2019/10/19 12:33:06;;;;;;;3.4;1.5;;;;;;;18.83;68.24219;994.858;;;;
2019/10/19 12:35:31;;;;;;;2.2;1.3;;;;;;;18.66;68.21582;994.8225;;;;
2019/10/19 12:37:56;;;;;;;2.7;1.3;;;;;;;18.82;68.60156;994.9402;;;;
2019/10/19 12:40:21;;;;;;;2.3;1.4;;;;;;;18.88;68.2959;994.9146;;;;
2019/10/19 12:42:46;;;;;;;2.1;1.4;;;;;;;18.89;67.99609;994.9014;;;;
2019/10/19 12:45:11;;;;;;;2.8;1.3;;;;;;;18.9;68.24219;994.9221;;;;
2019/10/19 12:47:36;;;;;;;2.7;1.5;;;;;;;18.93;68.1416;994.8667;;;;
2019/10/19 12:50:01;;;;;;;1.8;1.4;;;;;;;18.93;68.14258;994.7274;;;;
2019/10/19 12:52:26;;;;;;;2;1.5;;;;;;;19.06;68.43066;994.6806;;;;
2019/10/19 12:54:51;;;;;;;1.8;1.5;;;;;;;19.23;67.77832;994.6547;;;;
2019/10/19 12:57:16;;;;;;;3.5;1.8;;;;;;;19.11;68.48438;994.5301;;;;
2019/10/19 12:59:42;;;;;;;4.2;1.5;;;;;;;19.17;68.13184;994.3578;;;;
2019/10/19 13:02:07;;;;;;;3.5;1.5;;;;;;;19.11;68.33398;994.3735;;;;
2019/10/19 13:04:32;;;;;;;1.9;1.5;;;;;;;19.18;68.26074;994.475;;;;
2019/10/19 13:06:57;;;;;;;4.2;1.6;;;;;;;19.08;68.15332;994.6135;;;;
2019/10/19 13:09:22;;;;;;;1.6;1.3;;;;;;;19.23;68.16406;994.6609;;;;
2019/10/19 13:11:47;;;;;;;3.3;1.5;;;;;;;19.67;68;994.6277;;;;
2019/10/19 13:14:12;;;;;;;2.9;1.2;;;;;;;19.56;66.91797;994.6186;;;;
2019/10/19 13:16:37;;;;;;;2;1.1;;;;;;;19.79;64.35645;994.4827;;;;
2019/10/19 13:19:02;;;;;;;2;1;;;;;;;19.41;64.04395;994.6064;;;;
2019/10/19 13:21:28;;;;;;;1.6;1.1;;;;;;;19.29;64.82129;994.6202;;;;
2019/10/19 13:23:53;;;;;;;1;0.9;;;;;;;19.32;64.62695;994.5397;;;;
2019/10/19 13:26:18;;;;;;;1.7;0.8;;;;;;;19.15;67.03223;994.5388;;;;
2019/10/19 13:28:43;;;;;;;1.7;1.1;;;;;;;19.22;67.24121;994.5329;;;;
2019/10/19 13:31:08;;;;;;;2.3;1;;;;;;;19.63;66.49609;994.4695;;;;
2019/10/19 13:33:33;;;;;;;1.1;0.9;;;;;;;19.21;66.08203;994.5009;;;;
2019/10/19 13:35:58;;;;;;;3.3;0.9;;;;;;;19.18;65.03809;994.5322;;;;
2019/10/19 13:38:23;;;;;;;1.1;1;;;;;;;19.46;64.87012;994.5406;;;;
2019/10/19 13:40:48;;;;;;;1.1;0.9;;;;;;;19.14;64.56543;994.5245;;;;
2019/10/19 13:43:13;;;;;;;1;0.9;;;;;;;19.2;64.43457;994.4963;;;;
2019/10/19 13:45:39;;;;;;;2.8;0.8;;;;;;;19.21;63.99121;994.4917;;;;
2019/10/19 13:48:04;;;;;;;1;0.9;;;;;;;18.91;64.25293;994.4426;;;;
2019/10/19 13:50:29;;;;;;;1.1;0.9;;;;;;;18.83;65.11621;994.4364;;;;
2019/10/19 13:52:54;;;;;;;1.4;0.8;;;;;;;18.71;65.43652;994.442;;;;
2019/10/19 13:55:19;;;;;;;2.9;1.1;;;;;;;18.73;65.66113;994.3798;;;;
2019/10/19 13:57:44;;;;;;;1.7;0.9;;;;;;;18.76;65.89844;994.3771;;;;
2019/10/19 14:00:09;;;;;;;1.1;0.9;;;;;;;18.75;65.92188;994.3885;;;;
2019/10/19 14:02:34;;;;;;;1.3;1;;;;;;;18.77;66.14453;994.3289;;;;
2019/10/19 14:04:59;;;;;;;2;1.2;;;;;;;18.88;66.66309;994.3814;;;;
2019/10/19 14:07:24;;;;;;;1.1;1;;;;;;;18.79;65.99609;994.4455;;;;
2019/10/19 14:09:50;;;;;;;1.4;1;;;;;;;18.7;66.99707;994.4751;;;;
2019/10/19 14:12:15;;;;;;;1.7;1.1;;;;;;;18.84;66.87891;994.4719;;;;
2019/10/19 14:14:40;;;;;;;1.5;1;;;;;;;18.61;67.34473;994.5589;;;;
2019/10/19 14:17:05;;;;;;;1.3;1;;;;;;;18.41;69.09766;994.56;;;;
2019/10/19 14:19:30;;;;;;;2;1.1;;;;;;;18.36;69.46289;994.5246;;;;
2019/10/19 14:21:55;;;;;;;1.9;1.2;;;;;;;18.17;71.07715;994.6111;;;;
2019/10/19 14:24:20;;;;;;;1.9;1.2;;;;;;;18.13;72.85156;994.6294;;;;
2019/10/19 14:26:46;;;;;;;1.8;1.3;;;;;;;18.08;72.86621;994.4773;;;;
2019/10/19 14:29:11;;;;;;;3;1.3;;;;;;;18.05;73.12988;994.3564;;;;
2019/10/19 14:31:36;;;;;;;4.4;1.5;;;;;;;18.1;72.19531;994.2737;;;;
2019/10/19 14:34:01;;;;;;;1.7;1.1;;;;;;;18.13;72.17578;994.2584;;;;
2019/10/19 14:36:26;;;;;;;1.6;1.4;;;;;;;18.03;73.25586;994.2468;;;;
2019/10/19 14:38:51;;;;;;;2.5;1.3;;;;;;;18.05;74.18945;994.296;;;;
2019/10/19 14:41:16;;;;;;;2.1;1.4;;;;;;;18.03;74.82715;994.3261;;;;
2019/10/19 14:43:41;;;;;;;1.9;1.4;;;;;;;17.8;76.44141;994.4345;;;;
2019/10/19 14:46:06;;;;;;;2.5;1.5;;;;;;;17.62;79.67773;994.4539;;;;
2019/10/19 14:48:31;;;;;;;1.9;1.5;;;;;;;17.64;80.67188;994.4465;;;;
2019/10/19 14:50:56;;;;;;;2.6;1.8;;;;;;;17.39;81.81055;994.424;;;;
2019/10/19 14:53:21;;;;;;;2.7;1.5;;;;;;;17.28;83.00098;994.421;;;;
2019/10/19 14:55:47;;;;;;;1.6;1.4;;;;;;;17.38;79.74023;994.3259;;;;
2019/10/19 14:58:12;;;;;;;2.7;1.5;;;;;;;17.24;81.7373;994.4322;;;;
2019/10/19 15:00:37;;;;;;;2.4;1.6;;;;;;;17.05;83.86328;994.4441;;;;
2019/10/19 15:03:02;;;;;;;1.8;1.5;;;;;;;16.98;84.87305;994.5561;;;;
2019/10/19 15:05:27;;;;;;;4.3;1.9;;;;;;;16.76;86.82715;994.6523;;;;
2019/10/19 15:07:52;;;;;;;4.2;2;;;;;;;16.67;87.95898;994.6138;;;;
2019/10/19 15:10:17;;;;;;;3.3;2;;;;;;;16.62;88.12402;994.5536;;;;
2019/10/19 15:12:43;;;;;;;2.7;1.8;;;;;;;16.72;87.78223;994.5084;;;;
2019/10/19 15:17:33;;;;;;;2.2;1.7;;;;;;;16.84;87.09863;994.3853;;;;
2019/10/19 15:19:58;;;;;;;2.8;1.6;;;;;;;16.83;84.91309;994.3574;;;;
2019/10/19 15:22:23;;;;;;;2.3;1.4;;;;;;;16.79;85.91699;994.2749;;;;
2019/10/19 15:24:48;;;;;;;2.8;1.6;;;;;;;16.79;86.90234;994.3063;;;;
2019/10/19 15:27:13;;;;;;;3.4;1.8;;;;;;;16.84;85.69336;994.2658;;;;
2019/10/19 15:29:38;;;;;;;2.1;1.6;;;;;;;16.8;85.60547;994.2101;;;;
2019/10/19 15:32:03;;;;;;;2;1.5;;;;;;;16.78;87.69238;994.2897;;;;
2019/10/19 15:34:29;;;;;;;3.4;1.8;;;;;;;16.58;89.57715;994.3348;;;;
2019/10/19 15:36:54;;;;;;;2.3;1.9;;;;;;;16.43;90.7666;994.2453;;;;
2019/10/19 15:39:19;;;;;;;2.7;1.8;;;;;;;16.42;89.34766;994.269;;;;
2019/10/19 15:41:44;;;;;;;2.2;1.7;;;;;;;16.5;88.98047;994.2509;;;;
2019/10/19 15:44:09;;;;;;;2.9;2.2;;;;;;;16.46;88.26367;994.2194;;;;